Winside, Nebraska
Current Conditions -  °F | °C
As of 5:15 AM on Sunday 23 Nov 2014 (Local Time) from KLCG Reporting Station
Haze Haze  
Wind Chill: 44°   Ceiling: Unl
Heat Index: 46°   Visibility: 2.5mi
Dew Point: 46°   Wind: 5mph
Humidity: 98%   Direction: 220°SW
Pressure: 29.44"   Gusts: NA
Location:  42.18°N, 97.18°W
Report Text: KLCG 231115Z AUTO 22004KT 2 1/2SM BR CLR 08/08 A2944 RMK AO2 T00790076
Loading
Personal Weather Stations






























Interactive Weather Map New forecast layout! Learn more

10-Day Weather Forecast

Advertisements
Track Severe Weather on mobile